Time;durP1;ratioP1;P1;durP2;ratioP2;P2;SDS_P1;SDS_P2;PMS_P1;PMS_P2;Temp;Humidity;BMP_temperature;BMP_pressure;BME280_temperature;BME280_humidity;BME280_pressure;Samples;Min_cycle;Max_cycle;Signal;HPM_P1;HPM_P2
2021/10/08 00:00:12;;;;;;;24.83;23.40;;;10.80;90.70;;;;;;5083053;28;20477;-70
2021/10/08 00:02:39;;;;;;;23.57;22.17;;;10.90;90.60;;;;;;5071463;28;20461;-70
2021/10/08 00:05:08;;;;;;;25.00;23.30;;;10.90;91.10;;;;;;5070467;28;20462;-70
2021/10/08 00:07:35;;;;;;;23.57;22.27;;;10.90;90.90;;;;;;5070021;28;20458;-70
2021/10/08 00:10:03;;;;;;;25.00;22.90;;;10.90;90.70;;;;;;5070313;28;20458;-70
2021/10/08 00:12:30;;;;;;;23.90;22.50;;;10.90;90.90;;;;;;5071708;28;20830;-70
2021/10/08 00:14:57;;;;;;;23.80;22.30;;;11.00;90.70;;;;;;5070419;28;20822;-70
2021/10/08 00:17:24;;;;;;;23.90;22.57;;;10.90;90.70;;;;;;5071070;28;20697;-71
2021/10/08 00:19:51;;;;;;;25.30;23.80;;;10.90;90.70;;;;;;5071960;28;20474;-70
2021/10/08 00:22:19;;;;;;;25.20;23.50;;;10.90;90.60;;;;;;5072513;28;20533;-70
2021/10/08 00:24:46;;;;;;;24.20;22.57;;;10.90;90.60;;;;;;5079634;28;20910;-71
2021/10/08 00:27:13;;;;;;;24.07;22.73;;;10.80;90.60;;;;;;5072801;28;20458;-71
2021/10/08 00:29:40;;;;;;;24.03;22.73;;;10.80;90.60;;;;;;5081040;28;20458;-70
2021/10/08 00:32:07;;;;;;;24.40;22.80;;;10.80;90.60;;;;;;5071006;28;20560;-71
2021/10/08 00:34:34;;;;;;;24.20;22.70;;;10.70;90.90;;;;;;5069761;28;20827;-71
2021/10/08 00:37:01;;;;;;;25.17;23.73;;;10.70;91.20;;;;;;5070226;28;20922;-72
2021/10/08 00:39:29;;;;;;;25.03;23.63;;;10.60;91.30;;;;;;5070969;28;20478;-72
2021/10/08 00:41:56;;;;;;;24.37;22.97;;;10.60;91.50;;;;;;5070738;28;20565;-72
2021/10/08 00:44:23;;;;;;;23.90;22.40;;;10.60;91.80;;;;;;5070334;28;20459;-72
2021/10/08 00:46:49;;;;;;;23.90;22.60;;;10.50;92.30;;;;;;5083000;28;20453;-72
2021/10/08 00:49:16;;;;;;;24.40;23.07;;;10.50;92.20;;;;;;5074277;28;20461;-72
2021/10/08 00:51:43;;;;;;;24.97;23.57;;;10.40;92.30;;;;;;5070370;28;20992;-71
2021/10/08 00:54:10;;;;;;;24.57;23.07;;;10.40;92.50;;;;;;5069947;28;20460;-71
2021/10/08 00:56:40;;;;;;;24.03;22.63;;;10.30;92.70;;;;;;5075415;28;20600;-71
2021/10/08 00:59:08;;;;;;;24.97;23.57;;;10.30;93.10;;;;;;5068997;28;20474;-72
2021/10/08 01:01:35;;;;;;;24.40;22.90;;;10.20;93.40;;;;;;5080183;28;20470;-71
2021/10/08 01:04:04;;;;;;;24.53;23.20;;;10.20;93.40;;;;;;5070362;28;20552;-71
2021/10/08 01:06:31;;;;;;;24.17;22.77;;;10.20;93.40;;;;;;5069823;28;20461;-71
2021/10/08 01:08:58;;;;;;;25.20;23.80;;;10.20;93.50;;;;;;5072674;28;20459;-70
2021/10/08 01:11:25;;;;;;;25.00;23.50;;;10.10;93.50;;;;;;5072737;28;20476;-71
2021/10/08 01:13:53;;;;;;;25.10;23.60;;;10.10;93.60;;;;;;5069299;28;20557;-70
2021/10/08 01:16:23;;;;;;;24.50;23.00;;;10.00;93.70;;;;;;5070036;28;20485;-71
2021/10/08 01:18:51;;;;;;;25.37;23.87;;;10.00;93.90;;;;;;5074577;28;20450;-71
2021/10/08 01:21:19;;;;;;;24.60;23.13;;;10.00;93.70;;;;;;5069439;28;20474;-71
2021/10/08 01:23:46;;;;;;;24.97;23.53;;;10.00;93.70;;;;;;5070960;28;20548;-70
2021/10/08 01:26:14;;;;;;;25.90;24.33;;;9.90;93.90;;;;;;5070920;28;20462;-71
2021/10/08 01:28:40;;;;;;;25.00;23.60;;;9.90;94.20;;;;;;5074248;28;20457;-72
2021/10/08 01:31:07;;;;;;;25.20;23.70;;;9.80;94.20;;;;;;5076323;28;20469;-72
2021/10/08 01:33:35;;;;;;;25.40;23.93;;;9.80;94.40;;;;;;5068945;28;20494;-72
2021/10/08 01:36:01;;;;;;;25.97;24.17;;;9.80;94.40;;;;;;5079700;28;20570;-72
2021/10/08 01:38:30;;;;;;;24.83;23.40;;;9.70;94.60;;;;;;5069862;28;20469;-72
2021/10/08 01:40:57;;;;;;;25.25;23.70;;;9.70;94.50;;;;;;5068899;28;20495;-72
2021/10/08 01:43:23;;;;;;;25.23;23.63;;;9.60;94.60;;;;;;5069110;28;20188;-72
2021/10/08 01:45:50;;;;;;;25.83;24.07;;;9.60;94.60;;;;;;5073441;28;20458;-72
2021/10/08 01:48:17;;;;;;;24.90;23.27;;;9.50;94.80;;;;;;5077554;28;20450;-72
2021/10/08 01:50:44;;;;;;;25.30;23.67;;;9.60;94.80;;;;;;5067876;28;20488;-72
2021/10/08 01:53:11;;;;;;;25.40;23.90;;;9.50;94.70;;;;;;5067949;28;20485;-72
2021/10/08 01:55:39;;;;;;;24.77;23.30;;;9.50;94.70;;;;;;5084324;28;20457;-72
2021/10/08 01:58:06;;;;;;;25.57;23.80;;;9.50;94.80;;;;;;5078887;28;20803;-72
2021/10/08 02:00:33;;;;;;;25.27;23.60;;;9.40;94.80;;;;;;5070435;28;20488;-72
2021/10/08 02:03:00;;;;;;;25.25;23.75;;;9.50;94.70;;;;;;5070026;28;20454;-72
2021/10/08 02:05:27;;;;;;;25.15;23.65;;;9.40;94.60;;;;;;5070552;28;20194;-72
2021/10/08 02:07:54;;;;;;;26.00;24.45;;;9.40;94.70;;;;;;5072451;28;20210;-72
2021/10/08 02:10:21;;;;;;;24.50;23.00;;;9.40;94.70;;;;;;5082368;28;20696;-72
2021/10/08 02:12:49;;;;;;;25.50;23.90;;;9.40;94.90;;;;;;5080478;28;20808;-71
2021/10/08 02:15:16;;;;;;;25.17;23.77;;;9.40;94.90;;;;;;5068860;28;20468;-72
2021/10/08 02:17:43;;;;;;;25.90;24.20;;;9.30;94.90;;;;;;5069184;28;20851;-72
2021/10/08 02:20:11;;;;;;;24.93;23.43;;;9.30;94.90;;;;;;5069790;28;20493;-72
2021/10/08 02:22:38;;;;;;;25.00;23.60;;;9.30;95.00;;;;;;5069676;28;20453;-71
2021/10/08 02:25:05;;;;;;;24.75;23.25;;;9.30;94.90;;;;;;5068485;28;20301;-71
2021/10/08 02:27:32;;;;;;;25.75;24.15;;;9.30;94.90;;;;;;5069095;28;20199;-71
2021/10/08 02:30:00;;;;;;;24.80;23.40;;;9.20;94.80;;;;;;5081576;28;20203;-71
2021/10/08 02:32:27;;;;;;;26.38;24.67;;;9.20;94.80;;;;;;5071939;28;20191;-70
2021/10/08 02:34:54;;;;;;;24.45;23.02;;;9.20;94.80;;;;;;5070261;28;20196;-71
2021/10/08 02:37:21;;;;;;;25.40;23.70;;;9.10;94.70;;;;;;5068246;28;20343;-70
2021/10/08 02:39:48;;;;;;;25.00;23.40;;;9.10;94.60;;;;;;5069454;28;20769;-70
2021/10/08 02:42:15;;;;;;;24.35;22.70;;;9.20;94.40;;;;;;5081243;28;20303;-70
2021/10/08 02:44:42;;;;;;;24.50;23.10;;;9.10;94.40;;;;;;5075246;28;20202;-70
2021/10/08 02:47:10;;;;;;;24.95;23.45;;;9.00;94.60;;;;;;5079415;28;20194;-71
2021/10/08 02:49:37;;;;;;;26.77;25.08;;;9.00;94.60;;;;;;5068845;28;20234;-70
2021/10/08 02:52:04;;;;;;;25.17;23.60;;;9.00;94.90;;;;;;5072528;28;20215;-70
2021/10/08 02:54:31;;;;;;;25.98;24.48;;;9.00;94.90;;;;;;5086666;28;20195;-71
2021/10/08 02:56:58;;;;;;;26.35;24.55;;;9.00;95.00;;;;;;5074634;28;20231;-71
2021/10/08 02:59:25;;;;;;;25.83;24.23;;;8.90;95.00;;;;;;5076243;28;20200;-71
2021/10/08 03:01:52;;;;;;;27.03;25.03;;;8.90;94.80;;;;;;5071166;28;20220;-71
2021/10/08 03:04:20;;;;;;;25.38;23.77;;;8.80;94.80;;;;;;5068638;28;20453;-71
2021/10/08 03:06:47;;;;;;;27.35;25.40;;;8.90;94.60;;;;;;5072386;28;20275;-71
2021/10/08 03:09:14;;;;;;;26.35;24.65;;;8.90;94.70;;;;;;5071599;28;20195;-72
2021/10/08 03:11:41;;;;;;;26.92;25.25;;;8.80;94.90;;;;;;5071209;28;20212;-72
2021/10/08 03:14:08;;;;;;;24.95;23.48;;;8.80;94.90;;;;;;5080496;28;20213;-71
2021/10/08 03:16:34;;;;;;;25.70;24.17;;;8.80;94.80;;;;;;5083462;28;20204;-72
2021/10/08 03:19:01;;;;;;;27.50;25.75;;;8.80;94.90;;;;;;5074429;28;20198;-72
2021/10/08 03:21:29;;;;;;;26.33;24.60;;;8.70;95.10;;;;;;5073524;28;20219;-72
2021/10/08 03:23:56;;;;;;;26.90;25.25;;;8.70;95.00;;;;;;5083015;28;20690;-72
2021/10/08 03:26:23;;;;;;;27.00;25.20;;;8.60;95.10;;;;;;5073085;28;20208;-71
2021/10/08 03:28:50;;;;;;;26.38;24.58;;;8.60;95.20;;;;;;5081362;28;20209;-71
2021/10/08 03:31:17;;;;;;;26.13;24.42;;;8.60;95.10;;;;;;5072649;28;20214;-71
2021/10/08 03:33:44;;;;;;;27.27;25.67;;;8.60;95.10;;;;;;5071398;28;20222;-70
2021/10/08 03:36:16;;;;;;;25.92;24.33;;;8.60;95.20;;;;;;5071782;28;20239;-71
2021/10/08 03:38:45;;;;;;;27.88;26.10;;;8.60;95.20;;;;;;5078338;28;20208;-70
2021/10/08 03:41:14;;;;;;;27.58;25.98;;;8.60;95.30;;;;;;5070996;28;20499;-70
2021/10/08 03:43:41;;;;;;;26.50;24.80;;;8.60;95.20;;;;;;5070338;28;20277;-70
2021/10/08 03:46:09;;;;;;;28.40;26.70;;;8.60;95.10;;;;;;5070920;28;20195;-71
2021/10/08 03:51:23;;;;;;;29.90;28.00;;;8.60;95.10;;;;;;5070462;28;20304;-70
2021/10/08 03:53:51;;;;;;;27.50;25.83;;;8.50;94.90;;;;;;5072811;28;20561;-70
2021/10/08 03:56:18;;;;;;;29.05;27.10;;;8.50;95.00;;;;;;5080460;28;20188;-71
2021/10/08 03:58:45;;;;;;;27.60;25.98;;;8.40;95.10;;;;;;5075391;28;20201;-70
2021/10/08 04:01:12;;;;;;;29.00;27.30;;;8.40;95.10;;;;;;5078992;28;20676;-71
2021/10/08 04:03:39;;;;;;;30.25;28.45;;;8.40;95.00;;;;;;5079585;28;20371;-71
2021/10/08 04:06:06;;;;;;;25.95;24.45;;;8.40;94.90;;;;;;5070900;28;20286;-71
2021/10/08 04:08:33;;;;;;;27.83;26.08;;;8.40;94.90;;;;;;5071346;28;20196;-71
2021/10/08 04:11:01;;;;;;;28.05;26.35;;;8.40;94.80;;;;;;5071188;28;20214;-71
2021/10/08 04:13:28;;;;;;;26.92;25.23;;;8.40;94.80;;;;;;5070673;28;20204;-71
2021/10/08 04:15:55;;;;;;;27.35;25.65;;;8.40;94.80;;;;;;5071905;28;20213;-71
2021/10/08 04:18:22;;;;;;;26.60;24.80;;;8.40;94.90;;;;;;5071774;28;20203;-72
2021/10/08 04:20:49;;;;;;;28.60;26.70;;;8.30;95.00;;;;;;5069971;28;20309;-71
2021/10/08 04:23:16;;;;;;;27.33;25.65;;;8.30;95.00;;;;;;5069083;28;20661;-71
2021/10/08 04:25:43;;;;;;;29.27;27.35;;;8.30;95.00;;;;;;5070805;28;20297;-71
2021/10/08 04:28:11;;;;;;;28.15;26.35;;;8.30;94.80;;;;;;5073070;28;20195;-70
2021/10/08 04:30:38;;;;;;;27.20;25.33;;;8.40;94.80;;;;;;5075938;28;20218;-70
2021/10/08 04:33:14;;;;;;;28.10;26.38;;;8.30;94.70;;;;;;5073982;28;20195;-71
2021/10/08 04:35:40;;;;;;;28.23;26.45;;;8.30;94.70;;;;;;5088073;28;20198;-70
2021/10/08 04:38:07;;;;;;;28.70;27.00;;;8.30;94.60;;;;;;5079757;28;20196;-71
2021/10/08 04:40:34;;;;;;;28.58;26.60;;;8.30;94.90;;;;;;5070487;28;20227;-70
2021/10/08 04:43:01;;;;;;;27.95;26.15;;;8.20;95.00;;;;;;5070119;28;20210;-71
2021/10/08 04:45:30;;;;;;;28.77;27.00;;;8.20;95.10;;;;;;5070189;28;20294;-70
2021/10/08 04:47:57;;;;;;;27.10;25.50;;;8.20;95.10;;;;;;5070306;28;20205;-77
2021/10/08 04:50:24;;;;;;;29.00;27.17;;;8.20;95.20;;;;;;5071342;28;20219;-71
2021/10/08 04:52:51;;;;;;;27.67;25.98;;;8.20;94.90;;;;;;5070949;28;20197;-71
2021/10/08 04:55:18;;;;;;;27.60;25.90;;;8.20;94.90;;;;;;5070166;28;20275;-71
2021/10/08 04:57:45;;;;;;;26.70;24.90;;;8.20;94.80;;;;;;5073597;28;20294;-70
2021/10/08 05:00:13;;;;;;;27.25;25.55;;;8.20;94.80;;;;;;5070745;28;20227;-71
2021/10/08 05:02:41;;;;;;;29.13;27.08;;;8.20;94.80;;;;;;5069531;28;20285;-71
2021/10/08 05:05:09;;;;;;;27.25;25.55;;;8.20;94.60;;;;;;5069854;28;20198;-71
2021/10/08 05:07:36;;;;;;;28.70;26.67;;;8.20;94.40;;;;;;5078449;28;20203;-71
2021/10/08 05:10:02;;;;;;;28.35;26.50;;;8.20;94.20;;;;;;5071316;28;20660;-70
2021/10/08 05:12:29;;;;;;;28.13;26.17;;;8.20;94.30;;;;;;5075249;28;20194;-71
2021/10/08 05:14:56;;;;;;;29.20;27.38;;;8.10;94.30;;;;;;5070286;28;20294;-71
2021/10/08 05:17:23;;;;;;;29.33;27.33;;;8.10;94.50;;;;;;5069547;28;20206;-71
2021/10/08 05:19:51;;;;;;;28.27;26.60;;;8.10;94.50;;;;;;5070632;28;20588;-71
2021/10/08 05:22:18;;;;;;;29.27;27.23;;;8.10;94.30;;;;;;5080324;28;20218;-71
2021/10/08 05:24:45;;;;;;;28.70;26.92;;;8.10;94.20;;;;;;5068875;28;20778;-71
2021/10/08 05:27:12;;;;;;;29.38;27.40;;;8.10;94.40;;;;;;5068933;28;20561;-71
2021/10/08 05:29:39;;;;;;;28.27;26.52;;;8.10;94.40;;;;;;5070486;28;20218;-71
2021/10/08 05:32:06;;;;;;;29.35;27.38;;;8.10;94.00;;;;;;5072768;28;20645;-71
2021/10/08 05:34:35;;;;;;;27.88;26.17;;;8.10;94.20;;;;;;5073877;28;20195;-71
2021/10/08 05:37:04;;;;;;;29.15;27.05;;;8.00;94.40;;;;;;5071681;28;20569;-70
2021/10/08 05:39:31;;;;;;;30.50;28.58;;;8.00;94.40;;;;;;5078986;28;20289;-70
2021/10/08 05:41:58;;;;;;;28.55;26.65;;;8.00;94.30;;;;;;5078526;28;20680;-70
2021/10/08 05:44:25;;;;;;;29.73;27.42;;;8.00;94.30;;;;;;5068937;28;20205;-70
2021/10/08 05:46:53;;;;;;;27.73;25.92;;;8.00;94.30;;;;;;5067890;28;20203;-70
2021/10/08 05:49:20;;;;;;;29.50;27.55;;;8.00;94.40;;;;;;5067714;28;20459;-70
2021/10/08 05:51:47;;;;;;;31.40;29.30;;;8.20;94.50;;;;;;5068446;28;20302;-70
2021/10/08 05:54:15;;;;;;;29.27;27.15;;;8.20;94.10;;;;;;5068786;28;20606;-70
2021/10/08 05:56:42;;;;;;;29.85;27.95;;;8.20;93.90;;;;;;5079644;28;20286;-70
2021/10/08 05:59:09;;;;;;;29.88;28.02;;;8.20;93.70;;;;;;5069308;28;20205;-70
2021/10/08 06:01:36;;;;;;;31.05;28.60;;;8.20;93.70;;;;;;5074276;28;20229;-70
2021/10/08 06:04:06;;;;;;;28.85;27.00;;;8.20;93.90;;;;;;5078724;28;20206;-70
2021/10/08 06:06:33;;;;;;;29.02;27.13;;;8.20;93.90;;;;;;5072054;28;20288;-70
2021/10/08 06:09:01;;;;;;;29.35;27.48;;;8.20;94.00;;;;;;5076442;28;20191;-70
2021/10/08 06:11:29;;;;;;;29.98;28.08;;;8.20;93.70;;;;;;5067883;28;20736;-70
2021/10/08 06:13:56;;;;;;;30.05;28.05;;;8.30;93.70;;;;;;5069113;28;20241;-72
2021/10/08 06:16:23;;;;;;;29.48;27.52;;;8.30;93.70;;;;;;5070960;28;20208;-75
2021/10/08 06:18:50;;;;;;;30.77;28.67;;;8.40;93.50;;;;;;5077433;28;20194;-75
2021/10/08 06:21:17;;;;;;;29.45;27.45;;;8.40;93.80;;;;;;5072781;28;20218;-73
2021/10/08 06:23:45;;;;;;;29.15;27.25;;;8.50;94.00;;;;;;5080874;28;20199;-72
2021/10/08 06:26:11;;;;;;;32.05;29.65;;;8.50;93.40;;;;;;5069183;28;20213;-73
2021/10/08 06:28:40;;;;;;;28.65;26.85;;;8.60;92.90;;;;;;5070500;28;20293;-71
2021/10/08 06:31:07;;;;;;;31.90;29.85;;;8.60;92.30;;;;;;5071301;28;20214;-73
2021/10/08 06:33:34;;;;;;;30.50;28.50;;;8.60;92.50;;;;;;5080531;28;20203;-73
2021/10/08 06:36:01;;;;;;;31.13;28.73;;;8.60;92.70;;;;;;5081288;28;20194;-72
2021/10/08 06:38:28;;;;;;;30.10;27.80;;;8.70;92.80;;;;;;5069839;28;20207;-72
2021/10/08 06:40:55;;;;;;;30.58;28.60;;;8.80;93.50;;;;;;5069057;28;20216;-72
2021/10/08 06:43:22;;;;;;;29.50;27.50;;;8.90;93.30;;;;;;5074349;28;20206;-73
2021/10/08 06:45:51;;;;;;;32.28;29.85;;;8.90;92.70;;;;;;5069363;28;20196;-73
2021/10/08 06:48:18;;;;;;;31.02;28.92;;;8.80;92.40;;;;;;5075718;28;20205;-73
2021/10/08 06:50:45;;;;;;;30.17;28.02;;;8.80;92.80;;;;;;5081003;28;20229;-72
2021/10/08 06:53:12;;;;;;;31.00;29.05;;;9.00;92.80;;;;;;5074527;28;20196;-73
2021/10/08 06:55:39;;;;;;;29.73;27.42;;;9.20;92.50;;;;;;5077460;28;20657;-73
2021/10/08 06:58:07;;;;;;;30.52;28.60;;;9.30;92.20;;;;;;5081385;28;20196;-72
2021/10/08 07:00:33;;;;;;;31.43;29.23;;;9.40;92.00;;;;;;5072263;28;20685;-73
2021/10/08 07:03:02;;;;;;;31.83;29.50;;;9.50;91.60;;;;;;5080362;28;20939;-72
2021/10/08 07:05:29;;;;;;;31.23;29.03;;;9.60;91.30;;;;;;5077050;28;20454;-73
2021/10/08 07:07:55;;;;;;;31.13;29.03;;;9.70;91.00;;;;;;5072355;28;20458;-73
2021/10/08 07:10:23;;;;;;;30.60;28.57;;;9.80;90.90;;;;;;5076729;28;21368;-74
2021/10/08 07:12:49;;;;;;;30.97;28.67;;;9.80;90.80;;;;;;5072014;28;20445;-72
2021/10/08 07:15:18;;;;;;;33.20;31.00;;;9.90;90.80;;;;;;5078042;28;20463;-71
2021/10/08 07:17:47;;;;;;;32.83;30.47;;;10.00;90.60;;;;;;5079384;28;21224;-71
2021/10/08 07:20:17;;;;;;;32.70;30.30;;;10.10;90.60;;;;;;5077251;28;20898;-72
2021/10/08 07:22:44;;;;;;;34.53;32.00;;;10.20;90.40;;;;;;5080664;28;20481;-72
2021/10/08 07:25:12;;;;;;;35.70;33.20;;;10.30;90.10;;;;;;5076027;28;20492;-73
2021/10/08 07:27:40;;;;;;;35.00;32.40;;;10.40;90.00;;;;;;5071968;28;20460;-73
2021/10/08 07:30:09;;;;;;;35.70;33.10;;;10.50;90.10;;;;;;5070698;28;20457;-73
2021/10/08 07:32:36;;;;;;;35.00;32.50;;;10.70;90.60;;;;;;5071874;28;20800;-74
2021/10/08 07:35:03;;;;;;;34.23;31.70;;;10.80;90.00;;;;;;5070701;28;20454;-73
2021/10/08 07:37:32;;;;;;;34.93;32.40;;;10.90;89.80;;;;;;5071083;28;20450;-73
2021/10/08 07:39:59;;;;;;;35.17;32.33;;;11.00;89.20;;;;;;5071724;28;20449;-73
2021/10/08 07:42:27;;;;;;;35.17;32.53;;;11.00;88.80;;;;;;5086534;28;20598;-73
2021/10/08 07:44:54;;;;;;;36.60;33.80;;;11.20;88.80;;;;;;5074898;28;20959;-72
2021/10/08 07:47:21;;;;;;;35.60;33.00;;;11.30;88.50;;;;;;5080245;28;20461;-73
2021/10/08 07:49:51;;;;;;;34.90;32.30;;;11.50;88.20;;;;;;5073768;28;20457;-73
2021/10/08 07:52:19;;;;;;;36.07;33.37;;;11.50;87.60;;;;;;5071337;28;20454;-73
2021/10/08 07:54:47;;;;;;;34.53;31.90;;;11.70;86.90;;;;;;5077679;28;21053;-72
2021/10/08 07:57:14;;;;;;;34.77;32.37;;;11.70;86.40;;;;;;5081523;28;21017;-72
2021/10/08 07:59:41;;;;;;;33.63;31.27;;;11.80;86.10;;;;;;5077331;28;20465;-72
2021/10/08 08:02:07;;;;;;;36.83;33.90;;;11.80;86.10;;;;;;5070045;28;21080;-71
2021/10/08 08:04:35;;;;;;;36.57;33.87;;;11.90;85.50;;;;;;5072118;28;20481;-71
2021/10/08 08:07:02;;;;;;;36.00;33.30;;;12.00;85.40;;;;;;5069604;28;20464;-73
2021/10/08 08:09:29;;;;;;;37.07;34.27;;;12.10;84.50;;;;;;5076580;28;20449;-73
2021/10/08 08:11:57;;;;;;;36.07;33.50;;;12.10;84.60;;;;;;5082116;28;20470;-73
2021/10/08 08:14:24;;;;;;;35.67;33.30;;;12.20;84.50;;;;;;5073789;28;20511;-74
2021/10/08 08:16:53;;;;;;;35.70;33.10;;;12.30;84.20;;;;;;5069628;28;20465;-72
2021/10/08 08:19:20;;;;;;;34.23;31.73;;;12.30;83.70;;;;;;5069190;28;20851;-73
2021/10/08 08:21:47;;;;;;;53.30;45.30;;;12.40;83.80;;;;;;5073687;28;20550;-71
2021/10/08 08:24:14;;;;;;;37.03;34.20;;;12.60;82.60;;;;;;5076297;28;20450;-71
2021/10/08 08:26:41;;;;;;;36.87;33.80;;;12.70;81.90;;;;;;5078109;28;20484;-70
2021/10/08 08:29:09;;;;;;;36.33;33.70;;;12.70;81.90;;;;;;5079592;28;20537;-71
2021/10/08 08:31:38;;;;;;;36.03;33.50;;;12.80;81.70;;;;;;5073896;28;20465;-71
2021/10/08 08:34:04;;;;;;;34.97;32.77;;;12.90;81.30;;;;;;5070480;28;20536;-70
2021/10/08 08:36:32;;;;;;;35.63;33.03;;;12.90;81.20;;;;;;5085120;28;20456;-70
2021/10/08 08:39:03;;;;;;;35.70;32.80;;;13.00;80.90;;;;;;5078943;28;20537;-70
2021/10/08 08:41:30;;;;;;;35.40;32.67;;;13.00;81.10;;;;;;5069025;28;20538;-70
2021/10/08 08:43:57;;;;;;;34.70;32.30;;;13.10;81.40;;;;;;5071294;28;20454;-71
2021/10/08 08:46:25;;;;;;;35.93;33.13;;;13.20;81.00;;;;;;5075125;28;20462;-70
2021/10/08 08:48:53;;;;;;;36.17;33.47;;;13.40;80.10;;;;;;5073959;28;20809;-71
2021/10/08 08:51:25;;;;;;;35.80;33.20;;;13.50;79.50;;;;;;5069868;28;20557;-71
2021/10/08 08:53:57;;;;;;;37.00;34.50;;;13.50;79.70;;;;;;5070344;28;20485;-70
2021/10/08 08:56:27;;;;;;;34.17;31.70;;;13.50;79.80;;;;;;5073806;28;20936;-71
2021/10/08 08:58:59;;;;;;;35.23;32.73;;;13.70;79.20;;;;;;5069811;28;20940;-70
2021/10/08 09:01:28;;;;;;;35.53;33.23;;;13.80;79.20;;;;;;5079823;28;20982;-70
2021/10/08 09:04:06;;;;;;;34.30;31.80;;;14.00;78.70;;;;;;5070131;28;20473;-71
2021/10/08 09:06:36;;;;;;;35.83;33.37;;;14.20;77.90;;;;;;5070718;28;20511;-71
2021/10/08 09:09:15;;;;;;;35.10;32.60;;;14.30;77.30;;;;;;5069887;28;20457;-70
2021/10/08 09:11:43;;;;;;;36.37;33.77;;;14.50;77.40;;;;;;5077801;28;20477;-71
2021/10/08 09:14:18;;;;;;;35.27;32.77;;;14.70;76.60;;;;;;5070147;28;20512;-70
2021/10/08 09:17:09;;;;;;;33.67;31.27;;;14.80;76.40;;;;;;5081125;28;20530;-71
2021/10/08 09:19:47;;;;;;;34.60;32.10;;;15.00;75.90;;;;;;5062019;28;20544;-70
2021/10/08 09:22:15;;;;;;;35.13;32.63;;;15.00;75.10;;;;;;5069649;28;20492;-71
2021/10/08 09:24:42;;;;;;;34.83;32.40;;;15.00;75.00;;;;;;5079601;28;20456;-71
2021/10/08 09:27:10;;;;;;;34.90;31.93;;;15.10;74.80;;;;;;5069344;28;20819;-71
2021/10/08 09:29:37;;;;;;;34.20;31.67;;;15.00;75.00;;;;;;5075288;28;20812;-70
2021/10/08 09:32:04;;;;;;;36.60;34.20;;;15.10;75.10;;;;;;5083440;28;20471;-71
2021/10/08 09:34:32;;;;;;;37.20;34.60;;;15.20;75.20;;;;;;5069044;28;20539;-70
2021/10/08 09:37:02;;;;;;;36.13;33.73;;;15.30;74.20;;;;;;5069654;28;20540;-70
2021/10/08 09:39:31;;;;;;;34.50;31.97;;;15.30;74.20;;;;;;5068913;28;20447;-70
2021/10/08 09:42:00;;;;;;;35.57;32.83;;;15.20;74.80;;;;;;5068385;28;20505;-70
2021/10/08 09:44:28;;;;;;;34.80;32.50;;;15.30;74.10;;;;;;5070520;28;20459;-70
2021/10/08 09:47:11;;;;;;;35.27;33.00;;;15.20;74.50;;;;;;5080572;28;20450;-71
2021/10/08 09:49:44;;;;;;;35.10;32.90;;;15.10;74.70;;;;;;5072030;28;21216;-72
2021/10/08 09:52:22;;;;;;;34.20;31.60;;;14.90;75.30;;;;;;5077181;28;20505;-71
2021/10/08 09:54:50;;;;;;;36.93;34.13;;;15.10;75.20;;;;;;5071996;28;20472;-71
2021/10/08 09:57:18;;;;;;;35.40;32.57;;;15.10;75.10;;;;;;5070414;28;20544;-70
2021/10/08 09:59:46;;;;;;;33.30;30.70;;;15.30;74.70;;;;;;5076786;28;21022;-71
2021/10/08 10:02:13;;;;;;;35.40;33.00;;;14.90;75.80;;;;;;5065661;28;21039;-72
2021/10/08 10:04:50;;;;;;;35.63;33.00;;;14.80;76.60;;;;;;5069832;28;20470;-70
2021/10/08 10:07:19;;;;;;;36.00;33.50;;;15.00;76.40;;;;;;5068607;28;20457;-70
2021/10/08 10:09:46;;;;;;;35.27;32.87;;;15.00;76.50;;;;;;5069212;28;20548;-70
2021/10/08 10:12:15;;;;;;;33.50;31.30;;;15.10;76.00;;;;;;5070327;28;20457;-70
2021/10/08 10:14:44;;;;;;;36.37;33.87;;;15.30;75.80;;;;;;5067543;28;20496;-71
2021/10/08 10:17:12;;;;;;;34.93;32.33;;;15.30;75.40;;;;;;5076669;28;20485;-70
2021/10/08 10:19:43;;;;;;;35.57;33.07;;;15.40;75.60;;;;;;5067821;28;20545;-71
2021/10/08 10:22:14;;;;;;;35.53;33.03;;;15.40;75.40;;;;;;5075281;28;20763;-70
2021/10/08 10:24:43;;;;;;;33.27;31.07;;;15.60;75.30;;;;;;5076501;28;20560;-71
2021/10/08 10:27:11;;;;;;;34.97;32.53;;;15.80;74.60;;;;;;5083374;28;20465;-71
2021/10/08 10:29:39;;;;;;;34.70;32.50;;;16.00;73.90;;;;;;5075793;28;20460;-70
2021/10/08 10:32:07;;;;;;;36.20;33.77;;;16.00;73.50;;;;;;5075532;28;20477;-72
2021/10/08 10:34:36;;;;;;;37.00;34.20;;;15.70;74.50;;;;;;5072531;28;20460;-71
2021/10/08 10:37:03;;;;;;;34.47;32.07;;;15.80;74.30;;;;;;5072351;28;20453;-70
2021/10/08 10:39:31;;;;;;;33.87;31.57;;;15.80;74.50;;;;;;5072891;28;20488;-70
2021/10/08 10:42:15;;;;;;;32.90;30.73;;;15.80;74.60;;;;;;5071697;28;21033;-70
2021/10/08 10:45:14;;;;;;;35.93;33.53;;;15.80;74.90;;;;;;5072078;28;20468;-71
2021/10/08 10:47:43;;;;;;;33.93;31.73;;;15.90;74.80;;;;;;5078809;28;20454;-71
2021/10/08 10:50:17;;;;;;;37.13;34.00;;;15.80;75.10;;;;;;5075762;28;20510;-71
2021/10/08 10:52:53;;;;;;;36.50;33.60;;;16.10;74.70;;;;;;5074111;28;20540;-72
2021/10/08 10:55:23;;;;;;;35.00;32.27;;;16.20;73.80;;;;;;5078486;28;20507;-72
2021/10/08 10:57:58;;;;;;;35.03;32.63;;;16.20;74.10;;;;;;5073560;28;20467;-72
2021/10/08 11:00:32;;;;;;;35.20;32.90;;;16.20;74.30;;;;;;5078258;28;20480;-73
2021/10/08 11:03:08;;;;;;;35.40;32.90;;;16.50;73.00;;;;;;5075667;28;20919;-73
2021/10/08 11:05:38;;;;;;;34.90;32.60;;;16.80;72.20;;;;;;5076776;28;20472;-71
2021/10/08 11:08:13;;;;;;;35.43;32.93;;;16.70;72.10;;;;;;5072656;28;20536;-71
2021/10/08 11:10:45;;;;;;;33.80;31.23;;;16.50;72.70;;;;;;5071210;28;21775;-72
2021/10/08 11:13:26;;;;;;;34.47;32.00;;;16.50;73.10;;;;;;5071235;28;20446;-74
2021/10/08 11:15:55;;;;;;;35.33;32.73;;;16.60;72.60;;;;;;5072038;28;20523;-72
2021/10/08 11:18:53;;;;;;;34.47;32.27;;;16.70;72.70;;;;;;5070993;28;20470;-74
2021/10/08 11:21:52;;;;;;;33.93;31.70;;;16.50;72.50;;;;;;5071979;28;20855;-72
2021/10/08 11:24:21;;;;;;;34.27;31.87;;;16.40;73.10;;;;;;5074099;28;20565;-71
2021/10/08 11:26:59;;;;;;;34.33;31.63;;;16.30;73.30;;;;;;5083873;28;20496;-72
2021/10/08 11:29:31;;;;;;;34.10;31.70;;;16.30;73.50;;;;;;5076674;28;20457;-71
2021/10/08 11:32:06;;;;;;;34.77;32.30;;;16.50;73.30;;;;;;5071197;28;20476;-71
2021/10/08 11:34:34;;;;;;;36.00;33.40;;;16.60;73.20;;;;;;5073943;28;20457;-71
2021/10/08 11:37:02;;;;;;;34.43;31.83;;;16.80;72.10;;;;;;5071367;28;20454;-76
2021/10/08 11:39:32;;;;;;;35.77;32.87;;;16.80;72.10;;;;;;5073452;28;21218;-72
2021/10/08 11:42:10;;;;;;;35.50;33.23;;;16.90;71.70;;;;;;5078758;28;20506;-73
2021/10/08 11:44:41;;;;;;;34.73;32.43;;;16.80;71.80;;;;;;5072518;28;20946;-72
2021/10/08 11:47:23;;;;;;;35.13;32.77;;;16.70;72.20;;;;;;5071337;28;20960;-73
2021/10/08 11:50:11;;;;;;;35.40;32.90;;;16.70;72.40;;;;;;5072376;28;20480;-73
2021/10/08 11:52:40;;;;;;;35.03;32.50;;;16.70;72.70;;;;;;5077794;28;21182;-75
2021/10/08 11:55:11;;;;;;;35.37;32.97;;;16.60;72.90;;;;;;5070851;28;20527;-73
2021/10/08 11:57:56;;;;;;;34.90;32.50;;;16.80;72.60;;;;;;5070972;28;20450;-73
2021/10/08 12:00:26;;;;;;;36.30;33.80;;;16.80;72.10;;;;;;5073471;28;20464;-73
2021/10/08 12:03:01;;;;;;;35.73;33.13;;;16.70;72.70;;;;;;5070856;28;20481;-74
2021/10/08 12:05:43;;;;;;;34.87;32.67;;;16.80;72.30;;;;;;5070297;28;20452;-73
2021/10/08 12:08:13;;;;;;;34.80;32.10;;;16.60;73.20;;;;;;5087756;28;20484;-73
2021/10/08 12:10:40;;;;;;;36.17;33.10;;;16.70;73.20;;;;;;5090486;28;20567;-75
2021/10/08 12:13:08;;;;;;;35.13;32.73;;;16.50;73.20;;;;;;5082694;28;20448;-74
2021/10/08 12:15:36;;;;;;;33.67;31.20;;;16.20;74.10;;;;;;5080372;28;20943;-74
2021/10/08 12:18:04;;;;;;;33.70;31.47;;;16.10;75.10;;;;;;5071374;28;20452;-73
2021/10/08 12:20:33;;;;;;;33.13;30.80;;;16.10;75.60;;;;;;5072279;28;20481;-74
2021/10/08 12:23:20;;;;;;;34.90;32.10;;;16.40;74.50;;;;;;5073664;28;20490;-74
2021/10/08 12:25:48;;;;;;;34.03;31.63;;;16.40;74.30;;;;;;5071473;28;20469;-73
2021/10/08 12:28:21;;;;;;;32.93;30.57;;;16.60;73.90;;;;;;5072586;28;20460;-73
2021/10/08 12:30:57;;;;;;;32.93;30.50;;;16.70;74.20;;;;;;5070132;28;20466;-73
2021/10/08 12:33:30;;;;;;;33.83;31.60;;;16.70;74.20;;;;;;5072576;28;20532;-73
2021/10/08 12:36:20;;;;;;;32.67;30.33;;;16.90;73.70;;;;;;5077923;28;20469;-73
2021/10/08 12:39:17;;;;;;;33.70;31.40;;;17.00;73.10;;;;;;5072599;28;20819;-73
2021/10/08 12:41:47;;;;;;;33.93;31.60;;;17.00;72.90;;;;;;5072279;28;20811;-73